createdAt,value
2023-03-22T00:00:15.356Z,98939.41
2023-03-22T00:03:17.503Z,98942.19
2023-03-22T00:06:19.305Z,98929.03
2023-03-22T00:09:21.003Z,98938.53
2023-03-22T00:12:22.597Z,98933.91
2023-03-22T00:15:24.212Z,98921.06
2023-03-22T00:18:27.800Z,98941.03
2023-03-22T00:21:29.726Z,98936.97
2023-03-22T00:24:31.588Z,98916.53
2023-03-22T00:27:33.528Z,98929.78
2023-03-22T00:30:35.170Z,98912.06
2023-03-22T00:33:37.310Z,98909.09
2023-03-22T00:36:38.995Z,98918.91
2023-03-22T00:39:40.572Z,98920.81
2023-03-22T00:42:42.704Z,98916.22
2023-03-22T00:45:44.451Z,98912.06
2023-03-22T00:48:46.714Z,98900.28
2023-03-22T00:51:48.338Z,98886.44
2023-03-22T00:54:50.240Z,98882.38
2023-03-22T00:57:52.161Z,98866.47
2023-03-22T01:00:54.007Z,98883.44
2023-03-22T01:03:55.989Z,98892.44
2023-03-22T01:07:02.077Z,98899.31
2023-03-22T01:10:06.136Z,98879.00
2023-03-22T01:13:08.735Z,98863.03
2023-03-22T01:16:12.178Z,98877.97
2023-03-22T01:19:15.673Z,98883.31
2023-03-22T01:22:17.607Z,98858.53
2023-03-22T01:25:19.452Z,98857.09
2023-03-22T01:28:21.099Z,98856.88
2023-03-22T01:31:22.768Z,98851.81
2023-03-22T01:34:24.404Z,98843.13
2023-03-22T01:37:27.849Z,98839.28
2023-03-22T01:40:29.748Z,98851.31
2023-03-22T01:43:31.749Z,98828.78
2023-03-22T01:46:33.976Z,98851.44
2023-03-22T01:49:35.886Z,98845.78
2023-03-22T01:52:38.329Z,98845.09
2023-03-22T01:55:46.723Z,98848.41
2023-03-22T01:58:55.718Z,98849.28
2023-03-22T02:02:05.101Z,98834.97
2023-03-22T02:05:09.048Z,98814.66
2023-03-22T02:08:10.665Z,98835.06
2023-03-22T02:11:44.178Z,98833.41
2023-03-22T02:15:05.265Z,98843.25
2023-03-22T02:18:59.168Z,98835.13
2023-03-22T02:22:25.975Z,98831.94
2023-03-22T02:25:54.027Z,98833.53
2023-03-22T02:29:14.235Z,98820.72
2023-03-22T02:32:35.952Z,98828.84
2023-03-22T02:35:50.509Z,98817.97
2023-03-22T02:39:06.600Z,98827.69
2023-03-22T02:42:15.085Z,98826.28
2023-03-22T02:45:29.072Z,98823.78
2023-03-22T02:49:07.885Z,98819.28
2023-03-22T02:52:17.281Z,98812.31
2023-03-22T02:55:34.861Z,98812.97
2023-03-22T02:58:45.781Z,98818.75
2023-03-22T03:01:59.445Z,98835.13
2023-03-22T03:05:01.956Z,98838.97
2023-03-22T03:08:04.330Z,98813.91
2023-03-22T03:11:08.817Z,98801.66
2023-03-22T03:14:30.290Z,98816.78
2023-03-22T03:17:46.686Z,98830.09
2023-03-22T03:21:04.208Z,98820.69
2023-03-22T03:24:27.623Z,98818.28
2023-03-22T03:27:38.346Z,98791.91
2023-03-22T03:30:49.810Z,98820.63
2023-03-22T03:33:56.104Z,98813.63
2023-03-22T03:37:24.994Z,98813.09
2023-03-22T03:40:31.271Z,98815.91
2023-03-22T03:43:34.979Z,98813.44
2023-03-22T03:46:36.746Z,98808.34
2023-03-22T03:49:38.745Z,98797.47
2023-03-22T03:52:40.637Z,98794.53
2023-03-22T03:55:42.344Z,98812.63
2023-03-22T03:58:44.027Z,98814.56
2023-03-22T04:01:50.348Z,98811.06
2023-03-22T04:04:55.899Z,98810.88
2023-03-22T04:07:57.534Z,98809.69
2023-03-22T04:10:59.265Z,98798.94
2023-03-22T04:14:01.089Z,98801.56
2023-03-22T04:17:03.301Z,98806.31
2023-03-22T04:20:07.103Z,98798.16
2023-03-22T04:23:11.062Z,98820.47
2023-03-22T04:26:13.226Z,98821.34
2023-03-22T04:29:40.897Z,98819.75
2023-03-22T04:33:01.327Z,98816.59
2023-03-22T04:36:19.779Z,98823.66
2023-03-22T04:39:36.996Z,98804.28
2023-03-22T04:42:57.941Z,98797.72
2023-03-22T04:46:21.426Z,98801.81
2023-03-22T04:49:34.380Z,98795.19
2023-03-22T04:52:36.301Z,98805.81
2023-03-22T04:55:38.145Z,98794.44
2023-03-22T04:58:42.212Z,98788.22
2023-03-22T05:01:44.006Z,98787.72
2023-03-22T05:04:50.943Z,98779.56
2023-03-22T05:08:09.513Z,98782.31
2023-03-22T05:11:16.727Z,98789.63
2023-03-22T05:14:27.107Z,98790.09
2023-03-22T05:17:29.017Z,98793.44
2023-03-22T05:20:32.643Z,98792.31
2023-03-22T05:23:52.129Z,98785.78
2023-03-22T05:26:54.804Z,98781.84
2023-03-22T05:30:02.147Z,98800.56
2023-03-22T05:33:22.067Z,98790.53
2023-03-22T05:36:29.701Z,98800.47
2023-03-22T05:40:05.512Z,98789.69
2023-03-22T05:43:13.026Z,98791.41
2023-03-22T05:46:19.472Z,98805.09
2023-03-22T05:49:47.089Z,98771.97
2023-03-22T05:53:16.128Z,98806.97
2023-03-22T05:56:27.112Z,98751.91
2023-03-22T05:59:39.237Z,98771.13
2023-03-22T06:02:44.703Z,98757.06
2023-03-22T06:05:46.629Z,98784.69
2023-03-22T06:08:48.408Z,98766.56
2023-03-22T06:15:07.411Z,98764.28
2023-03-22T06:18:33.565Z,98810.09
2023-03-22T06:21:43.393Z,98776.47
2023-03-22T06:24:48.224Z,98750.19
2023-03-22T06:28:01.935Z,98801.13
2023-03-22T06:31:09.555Z,98818.94
2023-03-22T06:34:26.454Z,98813.28
2023-03-22T06:37:28.374Z,98823.19
2023-03-22T06:40:38.135Z,98818.03
2023-03-22T06:43:42.313Z,98812.16
2023-03-22T06:47:00.658Z,98820.06
2023-03-22T06:50:18.315Z,98817.09
2023-03-22T06:53:43.187Z,98819.13
2023-03-22T06:56:45.341Z,98807.78
2023-03-22T06:59:52.251Z,98813.75
2023-03-22T07:02:54.213Z,98814.66
2023-03-22T07:06:32.617Z,98816.72
2023-03-22T07:09:36.551Z,98822.56
2023-03-22T07:12:41.543Z,98819.22
2023-03-22T07:15:53.135Z,98816.06
2023-03-22T07:19:10.243Z,98824.59
2023-03-22T07:22:11.952Z,98820.41
2023-03-22T07:25:13.771Z,98832.81
2023-03-22T07:28:16.262Z,98820.69
2023-03-22T07:31:18.368Z,98811.50
2023-03-22T07:34:40.089Z,98816.16
2023-03-22T07:37:53.140Z,98813.94
2023-03-22T07:41:01.369Z,98814.41
2023-03-22T07:44:21.315Z,98826.25
2023-03-22T07:47:47.089Z,98818.91
2023-03-22T07:51:07.567Z,98825.28
2023-03-22T07:54:14.027Z,98818.47
2023-03-22T07:57:19.418Z,98812.00
2023-03-22T08:00:28.493Z,98827.41
2023-03-22T08:03:52.812Z,98816.41
2023-03-22T08:07:12.445Z,98803.88
2023-03-22T08:10:14.723Z,98827.88
2023-03-22T08:13:19.421Z,98827.91
2023-03-22T08:16:23.615Z,98837.84
2023-03-22T08:19:44.051Z,98828.78
2023-03-22T08:22:48.753Z,98843.22
2023-03-22T08:26:05.691Z,98842.44
2023-03-22T08:29:10.435Z,98849.69
2023-03-22T08:32:19.088Z,98838.28
2023-03-22T08:35:28.107Z,98817.03
2023-03-22T08:38:32.944Z,98816.03
2023-03-22T08:41:36.345Z,98817.47
2023-03-22T08:44:41.432Z,98816.66
2023-03-22T08:47:43.733Z,98816.34
2023-03-22T08:50:45.548Z,98817.13
2023-03-22T08:54:01.179Z,98822.94
2023-03-22T09:01:16.831Z,98807.91
2023-03-22T09:04:33.271Z,98810.03
2023-03-22T09:07:37.523Z,98814.53
2023-03-22T09:10:51.681Z,98806.03
2023-03-22T09:13:55.721Z,98800.84
2023-03-22T09:17:00.647Z,98797.81
2023-03-22T09:20:12.796Z,98794.56
2023-03-22T09:23:17.544Z,98780.63
2023-03-22T09:26:19.608Z,98806.00
2023-03-22T09:29:34.006Z,98789.72
2023-03-22T09:32:42.201Z,98792.78
2023-03-22T09:35:46.493Z,98786.63
2023-03-22T09:38:50.036Z,98789.44
2023-03-22T09:42:05.094Z,98784.50
2023-03-22T09:45:16.519Z,98773.31
2023-03-22T09:48:27.886Z,98778.44
2023-03-22T09:51:44.362Z,98774.91
2023-03-22T09:54:47.962Z,98776.38
2023-03-22T09:58:25.916Z,98770.13
2023-03-22T10:01:35.247Z,98769.66
2023-03-22T10:04:45.180Z,98753.34
2023-03-22T10:08:08.391Z,98760.28
2023-03-22T10:11:31.517Z,98749.53
2023-03-22T10:14:40.398Z,98752.41
2023-03-22T10:17:55.130Z,98762.53
2023-03-22T10:21:12.575Z,98750.84
2023-03-22T10:24:25.716Z,98747.88
2023-03-22T10:27:36.000Z,98751.94
2023-03-22T10:30:40.197Z,98756.63
2023-03-22T10:33:56.940Z,98759.19
2023-03-22T10:37:08.270Z,98760.13
2023-03-22T10:40:18.027Z,98760.25
2023-03-22T10:43:32.717Z,98768.09
2023-03-22T10:46:38.611Z,98749.72
2023-03-22T10:49:48.228Z,98749.22
2023-03-22T10:52:57.745Z,98749.59
2023-03-22T10:55:59.261Z,98737.31
2023-03-22T11:02:29.214Z,98725.59
2023-03-22T11:05:31.051Z,98728.19
2023-03-22T11:08:50.793Z,98726.22
2023-03-22T11:11:54.370Z,98726.94
2023-03-22T11:14:56.486Z,98729.75
2023-03-22T11:18:16.032Z,98712.13
2023-03-22T11:21:19.647Z,98714.56
2023-03-22T11:24:32.833Z,98717.38
2023-03-22T11:27:49.404Z,98716.84
2023-03-22T11:30:58.742Z,98711.22
2023-03-22T11:34:01.357Z,98714.72
2023-03-22T11:37:08.238Z,98703.13
2023-03-22T11:40:19.548Z,98705.81
2023-03-22T11:43:32.830Z,98688.50
2023-03-22T11:46:36.159Z,98700.75
2023-03-22T11:49:47.748Z,98704.03
2023-03-22T11:52:49.465Z,98700.84
2023-03-22T11:55:54.311Z,98696.88
2023-03-22T11:59:27.741Z,98694.38
2023-03-22T12:02:46.436Z,98687.28
2023-03-22T12:05:51.065Z,98680.81
2023-03-22T12:09:05.369Z,98684.06
2023-03-22T12:12:31.292Z,98673.94
2023-03-22T12:15:41.686Z,98679.78
2023-03-22T12:19:20.943Z,98672.75
2023-03-22T12:22:34.983Z,98674.25
2023-03-22T12:25:40.080Z,98671.41
2023-03-22T12:29:04.354Z,98648.06
2023-03-22T12:32:19.540Z,98639.09
2023-03-22T12:35:34.930Z,98650.47
2023-03-22T12:38:48.453Z,98649.25
2023-03-22T12:41:55.241Z,98649.63
2023-03-22T12:45:05.517Z,98650.03
2023-03-22T12:48:16.380Z,98629.28
2023-03-22T12:54:42.157Z,98627.81
2023-03-22T12:57:44.696Z,98624.66
2023-03-22T13:01:22.063Z,98628.16
2023-03-22T13:04:34.638Z,98611.72
2023-03-22T13:07:48.407Z,98607.44
2023-03-22T13:11:05.676Z,98608.63
2023-03-22T13:14:49.397Z,98598.75
2023-03-22T13:17:51.070Z,98598.84
2023-03-22T13:21:14.368Z,98588.22
2023-03-22T13:24:16.175Z,98595.63
2023-03-22T13:27:18.232Z,98576.94
2023-03-22T13:30:31.067Z,98587.47
2023-03-22T13:33:36.871Z,98577.25
2023-03-22T13:36:56.728Z,98580.81
2023-03-22T13:43:41.671Z,98570.69
2023-03-22T13:46:46.813Z,98558.19
2023-03-22T13:49:51.276Z,98553.88
2023-03-22T13:52:58.827Z,98555.81
2023-03-22T13:56:06.957Z,98540.22
2023-03-22T13:59:27.409Z,98547.22
2023-03-22T14:02:35.883Z,98549.97
2023-03-22T14:05:38.440Z,98545.25
2023-03-22T14:08:43.770Z,98542.94
2023-03-22T14:12:00.346Z,98544.88
2023-03-22T14:18:41.472Z,98531.28
2023-03-22T14:21:49.640Z,98518.31
